createdAt,value
2018-02-18T00:00:28.033Z,28.85
2018-02-18T00:02:57.349Z,26.45
2018-02-18T00:05:27.064Z,25.88
2018-02-18T00:07:56.377Z,26.77
2018-02-18T00:10:25.697Z,25.70
2018-02-18T00:12:54.983Z,26.40
2018-02-18T00:15:24.278Z,27.52
2018-02-18T00:17:53.596Z,27.80
2018-02-18T00:20:22.893Z,24.73
2018-02-18T00:22:53.755Z,23.87
2018-02-18T00:25:23.058Z,26.75
2018-02-18T00:27:52.351Z,27.15
2018-02-18T00:30:21.658Z,26.60
2018-02-18T00:32:50.958Z,26.45
2018-02-18T00:35:20.281Z,26.95
2018-02-18T00:37:49.593Z,26.95
2018-02-18T00:40:18.933Z,25.30
2018-02-18T00:42:48.422Z,25.75
2018-02-18T00:45:17.745Z,26.35
2018-02-18T00:47:47.046Z,26.25
2018-02-18T00:50:16.345Z,24.33
2018-02-18T00:52:45.689Z,23.85
2018-02-18T00:55:15.015Z,25.98
2018-02-18T00:57:45.081Z,24.48
2018-02-18T01:00:14.402Z,20.62
2018-02-18T01:02:43.680Z,25.73
2018-02-18T01:05:13.810Z,25.23
2018-02-18T01:07:43.109Z,24.37
2018-02-18T01:10:12.445Z,26.23
2018-02-18T01:12:41.749Z,24.30
2018-02-18T01:15:11.051Z,24.33
2018-02-18T01:17:40.329Z,29.08
2018-02-18T01:20:09.645Z,27.17
2018-02-18T01:22:39.655Z,23.65
2018-02-18T01:25:08.953Z,21.62
2018-02-18T01:27:38.267Z,26.95
2018-02-18T01:30:08.350Z,24.27
2018-02-18T01:32:37.653Z,24.87
2018-02-18T01:35:06.945Z,22.62
2018-02-18T01:37:36.254Z,24.33
2018-02-18T01:40:05.567Z,23.35
2018-02-18T01:42:35.608Z,23.42
2018-02-18T01:45:04.922Z,22.60
2018-02-18T01:47:34.195Z,21.65
2018-02-18T01:50:21.311Z,21.12
2018-02-18T01:52:50.615Z,23.83
2018-02-18T01:55:19.923Z,22.27
2018-02-18T01:57:49.219Z,23.60
2018-02-18T02:00:18.542Z,21.85
2018-02-18T02:02:47.843Z,23.08
2018-02-18T02:05:17.906Z,22.73
2018-02-18T02:07:47.199Z,21.73
2018-02-18T02:10:16.494Z,23.27
2018-02-18T02:12:45.821Z,23.20
2018-02-18T02:15:15.123Z,22.70
2018-02-18T02:17:44.438Z,23.15
2018-02-18T02:20:13.762Z,23.60
2018-02-18T02:22:43.826Z,23.48
2018-02-18T02:25:13.140Z,24.02
2018-02-18T02:27:43.146Z,22.30
2018-02-18T02:30:12.969Z,24.85
2018-02-18T02:32:42.262Z,23.70
2018-02-18T02:35:11.568Z,23.10
2018-02-18T02:37:40.865Z,25.65
2018-02-18T02:40:10.170Z,22.62
2018-02-18T02:42:39.487Z,23.67
2018-02-18T02:45:08.788Z,23.70
2018-02-18T02:47:38.068Z,24.08
2018-02-18T02:50:08.145Z,23.80
2018-02-18T02:52:37.625Z,22.50
2018-02-18T02:55:07.706Z,26.90
2018-02-18T02:57:37.017Z,23.00
2018-02-18T03:00:06.320Z,22.30
2018-02-18T03:02:36.361Z,24.80
2018-02-18T03:05:05.652Z,24.55
2018-02-18T03:07:35.184Z,23.50
2018-02-18T03:10:04.490Z,24.12
2018-02-18T03:12:33.802Z,26.30
2018-02-18T03:15:03.111Z,25.15
2018-02-18T03:17:32.415Z,24.98
2018-02-18T03:20:02.590Z,26.40
2018-02-18T03:22:31.885Z,26.00
2018-02-18T03:25:01.182Z,24.75
2018-02-18T03:27:30.478Z,26.50
2018-02-18T03:29:59.782Z,25.85
2018-02-18T03:32:29.094Z,26.45
2018-02-18T03:34:58.415Z,25.95
2018-02-18T03:37:27.713Z,24.80
2018-02-18T03:39:57.781Z,24.80
2018-02-18T03:42:27.852Z,25.67
2018-02-18T03:44:57.916Z,29.45
2018-02-18T03:47:27.218Z,26.90
2018-02-18T03:49:56.533Z,31.33
2018-02-18T03:52:25.838Z,28.58
2018-02-18T03:54:55.154Z,29.10
2018-02-18T03:57:25.208Z,32.67
2018-02-18T03:59:54.563Z,30.58
2018-02-18T04:02:23.855Z,29.05
2018-02-18T04:04:53.153Z,29.10
2018-02-18T04:07:23.085Z,31.35
2018-02-18T04:09:53.129Z,28.95
2018-02-18T04:12:22.455Z,30.37
2018-02-18T04:14:51.754Z,29.42
2018-02-18T04:17:21.054Z,32.10
2018-02-18T04:19:50.366Z,29.30
2018-02-18T04:22:19.670Z,32.85
2018-02-18T04:24:48.985Z,31.90
2018-02-18T04:27:18.319Z,31.20
2018-02-18T04:29:48.389Z,32.60
2018-02-18T04:32:17.710Z,32.35
2018-02-18T04:34:47.025Z,31.75
2018-02-18T04:37:16.312Z,31.05
2018-02-18T04:39:45.667Z,30.20
2018-02-18T04:42:15.012Z,32.58
2018-02-18T04:44:44.330Z,31.98
2018-02-18T04:47:14.404Z,30.25
2018-02-18T04:49:43.703Z,31.25
2018-02-18T04:52:13.018Z,33.45
2018-02-18T04:54:42.315Z,33.45
2018-02-18T04:57:11.622Z,32.60
2018-02-18T04:59:40.929Z,32.85
2018-02-18T05:02:10.269Z,35.30
2018-02-18T05:04:40.346Z,34.13
2018-02-18T05:07:09.652Z,32.05
2018-02-18T05:09:38.959Z,32.85
2018-02-18T05:12:08.254Z,32.38
2018-02-18T05:14:37.562Z,30.17
2018-02-18T05:17:06.869Z,32.35
2018-02-18T05:19:36.176Z,32.60
2018-02-18T05:22:05.490Z,30.77
2018-02-18T05:24:35.559Z,30.40
2018-02-18T05:27:04.842Z,30.20
2018-02-18T05:29:34.129Z,30.20
2018-02-18T05:32:03.523Z,32.28
2018-02-18T05:34:32.821Z,31.70
2018-02-18T05:37:02.152Z,35.10
2018-02-18T05:39:35.535Z,29.87
2018-02-18T05:42:04.864Z,32.60
2018-02-18T05:44:34.183Z,30.52
2018-02-18T05:47:03.498Z,30.73
2018-02-18T05:49:32.853Z,33.10
2018-02-18T05:52:02.205Z,34.60
2018-02-18T05:54:32.281Z,34.33
2018-02-18T05:57:01.590Z,33.15
2018-02-18T05:59:30.896Z,32.35
2018-02-18T06:02:00.195Z,32.75
2018-02-18T06:04:29.495Z,32.47
2018-02-18T06:06:58.837Z,33.63
2018-02-18T06:09:28.898Z,33.75
2018-02-18T06:11:58.208Z,33.30
2018-02-18T06:14:27.537Z,32.15
2018-02-18T06:16:56.890Z,32.50
2018-02-18T06:19:26.194Z,33.13
2018-02-18T06:21:55.495Z,31.25
2018-02-18T06:24:24.867Z,32.58
2018-02-18T06:26:54.170Z,32.30
2018-02-18T06:29:23.497Z,30.05
2018-02-18T06:31:52.775Z,32.70
2018-02-18T06:34:22.068Z,32.60
2018-02-18T06:36:51.416Z,34.05
2018-02-18T06:39:20.720Z,33.70
2018-02-18T06:41:50.095Z,36.92
2018-02-18T06:44:19.391Z,31.45
2018-02-18T06:46:48.713Z,31.92
2018-02-18T06:49:18.048Z,32.63
2018-02-18T06:51:47.385Z,31.08
2018-02-18T06:54:16.678Z,30.37
2018-02-18T06:56:46.732Z,30.73
2018-02-18T06:59:16.035Z,30.70
2018-02-18T07:01:45.367Z,31.90
2018-02-18T07:04:14.687Z,32.35
2018-02-18T07:06:44.763Z,31.12
2018-02-18T07:09:14.070Z,30.08
2018-02-18T07:11:43.376Z,30.50
2018-02-18T07:14:12.688Z,31.08
2018-02-18T07:16:42.001Z,30.20
2018-02-18T07:19:11.302Z,30.65
2018-02-18T07:21:41.376Z,30.67
2018-02-18T07:24:10.687Z,31.10
2018-02-18T07:26:39.990Z,32.70
2018-02-18T07:29:09.278Z,32.00
2018-02-18T07:31:38.584Z,33.45
2018-02-18T07:34:07.884Z,31.00
2018-02-18T07:36:37.178Z,31.75
2018-02-18T07:39:06.487Z,30.95
2018-02-18T07:41:36.623Z,32.58
2018-02-18T07:44:05.915Z,31.87
2018-02-18T07:46:35.219Z,33.67
2018-02-18T07:49:04.519Z,30.42
2018-02-18T07:51:33.813Z,32.17
2018-02-18T07:54:03.120Z,33.20
2018-02-18T07:56:32.428Z,32.88
2018-02-18T07:59:01.746Z,33.28
2018-02-18T08:01:31.839Z,30.62
2018-02-18T08:04:01.128Z,30.48
2018-02-18T08:06:30.429Z,34.78
2018-02-18T08:09:00.710Z,37.25
2018-02-18T08:11:30.042Z,38.55
2018-02-18T08:13:59.306Z,32.90
2018-02-18T08:16:28.626Z,34.20
2018-02-18T08:18:57.928Z,32.05
2018-02-18T08:21:27.250Z,31.80
2018-02-18T08:23:56.537Z,31.17
2018-02-18T08:26:25.837Z,32.47
2018-02-18T08:28:55.179Z,34.50
2018-02-18T08:31:24.475Z,32.17
2018-02-18T08:33:53.778Z,34.40
2018-02-18T08:36:23.089Z,31.25
2018-02-18T08:38:52.391Z,30.75
2018-02-18T08:41:21.696Z,30.33
2018-02-18T08:43:51.850Z,30.70
2018-02-18T08:46:21.378Z,31.60
2018-02-18T08:48:50.904Z,31.08
2018-02-18T08:51:20.203Z,33.72
2018-02-18T08:53:49.543Z,32.22
2018-02-18T08:56:19.614Z,28.45
2018-02-18T08:58:49.069Z,32.17
2018-02-18T09:01:18.373Z,33.22
2018-02-18T09:03:47.733Z,32.38
2018-02-18T09:06:17.048Z,33.28
2018-02-18T09:08:46.396Z,32.72
2018-02-18T09:11:16.118Z,31.58
2018-02-18T09:13:45.422Z,32.28
2018-02-18T09:16:15.701Z,30.48
2018-02-18T09:18:45.089Z,30.88
2018-02-18T09:21:15.154Z,30.27
2018-02-18T09:23:44.754Z,29.35
2018-02-18T09:26:14.072Z,30.08
2018-02-18T09:28:43.376Z,38.10
2018-02-18T09:31:12.702Z,32.58
2018-02-18T09:33:42.010Z,34.17
2018-02-18T09:36:11.315Z,31.10
2018-02-18T09:38:40.613Z,32.75
2018-02-18T09:41:10.740Z,27.98
2018-02-18T09:43:40.045Z,32.22
2018-02-18T09:46:10.193Z,34.10
2018-02-18T09:48:39.492Z,30.12
2018-02-18T09:51:08.878Z,32.65
2018-02-18T09:53:38.178Z,29.00
2018-02-18T09:56:08.247Z,29.73
2018-02-18T09:58:37.587Z,30.52
2018-02-18T10:01:06.871Z,29.25
2018-02-18T10:03:36.242Z,27.90
2018-02-18T10:06:05.547Z,29.50
2018-02-18T10:08:34.936Z,30.42
2018-02-18T10:11:05.069Z,32.20
2018-02-18T10:13:34.366Z,28.52
2018-02-18T10:16:03.694Z,31.17
2018-02-18T10:18:33.011Z,30.90
2018-02-18T10:21:02.374Z,30.98
2018-02-18T10:23:31.657Z,30.88
2018-02-18T10:26:00.977Z,29.37
2018-02-18T10:28:30.263Z,32.08
2018-02-18T10:30:59.560Z,33.72
2018-02-18T10:33:29.087Z,29.48
2018-02-18T10:35:58.391Z,31.55
2018-02-18T10:38:27.970Z,30.25
2018-02-18T10:40:57.274Z,31.83
2018-02-18T10:43:26.574Z,31.05
2018-02-18T10:45:56.526Z,31.00
2018-02-18T10:48:25.891Z,31.87
2018-02-18T10:50:55.157Z,32.20
2018-02-18T10:53:25.225Z,34.28
2018-02-18T10:55:54.516Z,33.15
2018-02-18T10:58:24.662Z,32.35
2018-02-18T11:00:54.084Z,35.83
2018-02-18T11:03:28.685Z,32.00
2018-02-18T11:05:59.814Z,34.08
2018-02-18T11:08:32.140Z,31.98
2018-02-18T11:11:01.783Z,31.30
2018-02-18T11:13:33.826Z,32.78
2018-02-18T11:16:03.476Z,32.22
2018-02-18T11:18:33.366Z,34.13
2018-02-18T11:21:02.684Z,31.45
2018-02-18T11:23:34.234Z,32.60
2018-02-18T11:26:07.260Z,32.25
2018-02-18T11:28:37.383Z,31.95
2018-02-18T11:31:06.705Z,31.75
2018-02-18T11:33:36.000Z,31.30
2018-02-18T11:36:05.418Z,29.80
2018-02-18T11:38:34.723Z,31.73
2018-02-18T11:41:04.957Z,33.03
2018-02-18T11:43:34.272Z,29.02
2018-02-18T11:46:04.697Z,28.77
2018-02-18T11:48:33.997Z,31.70
2018-02-18T11:51:03.347Z,34.22
2018-02-18T11:53:32.693Z,34.20
2018-02-18T11:56:02.007Z,34.63
2018-02-18T11:58:31.794Z,33.90
2018-02-18T12:01:01.692Z,32.60
2018-02-18T12:03:30.997Z,32.95
2018-02-18T12:06:00.283Z,31.58
2018-02-18T12:08:29.597Z,32.58
2018-02-18T12:10:58.894Z,33.72
2018-02-18T12:13:28.190Z,31.70
2018-02-18T12:15:58.269Z,32.50
2018-02-18T12:18:27.549Z,31.98
2018-02-18T12:20:56.893Z,28.40
2018-02-18T12:23:26.186Z,26.37
2018-02-18T12:25:55.604Z,21.10
2018-02-18T12:28:25.684Z,24.83
2018-02-18T12:30:55.003Z,24.12
2018-02-18T12:33:24.284Z,26.20
2018-02-18T12:35:53.603Z,24.75
2018-02-18T12:38:22.920Z,24.65
2018-02-18T12:40:52.224Z,24.00
2018-02-18T12:43:21.523Z,26.50
2018-02-18T12:45:51.585Z,21.75
2018-02-18T12:48:20.996Z,27.50
2018-02-18T12:50:50.314Z,28.02
2018-02-18T12:53:19.602Z,29.17
2018-02-18T12:55:48.913Z,30.00
2018-02-18T12:58:18.238Z,27.52
2018-02-18T13:00:47.537Z,27.52
2018-02-18T13:03:16.854Z,27.55
2018-02-18T13:05:46.936Z,28.62
2018-02-18T13:08:16.251Z,26.67
2018-02-18T13:10:45.551Z,28.52
2018-02-18T13:13:14.885Z,24.80
2018-02-18T13:15:44.206Z,27.08
2018-02-18T13:18:13.488Z,26.40
2018-02-18T13:20:42.823Z,22.60
2018-02-18T13:23:12.122Z,27.40
2018-02-18T13:25:41.445Z,19.60
2018-02-18T13:28:10.767Z,19.40
2018-02-18T13:30:40.859Z,21.70
2018-02-18T13:33:10.159Z,18.73
2018-02-18T13:35:39.506Z,20.40
2018-02-18T13:38:08.810Z,21.45
2018-02-18T13:40:38.120Z,24.00
2018-02-18T13:43:07.848Z,19.80
2018-02-18T13:45:37.165Z,21.42
2018-02-18T13:48:06.456Z,24.85
2018-02-18T13:50:35.764Z,22.30
2018-02-18T13:53:05.167Z,21.40
2018-02-18T13:55:34.465Z,19.48
2018-02-18T13:58:03.772Z,18.60
2018-02-18T14:00:33.054Z,19.12
2018-02-18T14:03:02.364Z,18.02
2018-02-18T14:05:31.666Z,19.02
2018-02-18T14:08:00.975Z,19.10
2018-02-18T14:10:30.281Z,21.35
2018-02-18T14:12:59.562Z,18.70
2018-02-18T14:15:28.898Z,19.62
2018-02-18T14:17:58.189Z,17.98
2018-02-18T14:20:27.505Z,19.30
2018-02-18T14:22:56.805Z,19.70
2018-02-18T14:25:26.892Z,17.58
2018-02-18T14:27:56.200Z,19.23
2018-02-18T14:30:25.508Z,21.37
2018-02-18T14:32:55.568Z,19.87
2018-02-18T14:35:24.865Z,17.05
2018-02-18T14:37:54.165Z,18.12
2018-02-18T14:40:23.611Z,19.92
2018-02-18T14:43:10.677Z,17.33
2018-02-18T14:45:58.460Z,19.60
2018-02-18T14:48:45.259Z,20.05
2018-02-18T14:54:58.301Z,18.10
2018-02-18T14:57:35.276Z,17.70
2018-02-18T15:00:04.617Z,17.15
2018-02-18T15:02:33.924Z,19.75
2018-02-18T15:05:03.256Z,22.27
2018-02-18T15:07:33.329Z,20.55
2018-02-18T15:10:02.615Z,21.27
2018-02-18T15:12:31.964Z,22.05
2018-02-18T15:15:01.255Z,20.33
2018-02-18T15:17:30.572Z,21.62
2018-02-18T15:20:00.679Z,21.73
2018-02-18T15:22:30.771Z,22.55
2018-02-18T15:25:00.078Z,23.90
2018-02-18T15:27:29.614Z,23.75
2018-02-18T15:29:59.490Z,24.80
2018-02-18T15:32:29.240Z,22.45
2018-02-18T15:34:59.264Z,26.25
2018-02-18T15:37:29.466Z,22.90
2018-02-18T15:39:59.654Z,22.92
2018-02-18T15:42:29.346Z,24.58
2018-02-18T15:44:58.636Z,24.08
2018-02-18T15:47:27.920Z,29.63
2018-02-18T15:49:57.218Z,23.15
2018-02-18T15:52:26.536Z,24.30
2018-02-18T15:54:55.834Z,24.50
2018-02-18T15:57:25.127Z,25.12
2018-02-18T15:59:54.409Z,24.05
2018-02-18T16:02:24.483Z,24.20
2018-02-18T16:04:53.790Z,25.73
2018-02-18T16:07:23.071Z,24.55
2018-02-18T16:09:52.363Z,26.15
2018-02-18T16:12:21.680Z,23.80
2018-02-18T16:14:51.013Z,24.35
2018-02-18T16:17:21.054Z,26.60
2018-02-18T16:19:51.121Z,25.73
2018-02-18T16:22:21.187Z,26.62
2018-02-18T16:24:51.254Z,26.30
2018-02-18T16:27:20.575Z,24.35
2018-02-18T16:29:49.892Z,26.95
2018-02-18T16:32:19.180Z,25.42
2018-02-18T16:34:48.620Z,26.92
2018-02-18T16:37:18.699Z,27.83
2018-02-18T16:39:48.008Z,26.65
2018-02-18T16:42:17.334Z,25.45
2018-02-18T16:44:47.446Z,28.42
2018-02-18T16:47:16.846Z,28.98
2018-02-18T16:49:46.157Z,28.15
2018-02-18T16:52:15.499Z,29.25
2018-02-18T16:54:44.798Z,27.60
2018-02-18T16:57:14.104Z,26.85
2018-02-18T16:59:43.402Z,26.92
2018-02-18T17:02:12.798Z,25.42
2018-02-18T17:04:42.139Z,27.95
2018-02-18T17:07:11.445Z,24.83
2018-02-18T17:09:40.802Z,29.65
2018-02-18T17:12:10.098Z,26.92
2018-02-18T17:14:39.424Z,25.80
2018-02-18T17:17:08.734Z,26.62
2018-02-18T17:19:38.001Z,26.55
2018-02-18T17:22:07.323Z,27.25
2018-02-18T17:24:36.697Z,26.45
2018-02-18T17:27:06.038Z,26.55
2018-02-18T17:29:35.403Z,26.70
2018-02-18T17:32:04.708Z,25.45
2018-02-18T17:34:33.992Z,26.60
2018-02-18T17:37:03.313Z,25.60
2018-02-18T17:39:32.601Z,24.55
2018-02-18T17:42:01.900Z,24.90
2018-02-18T17:44:31.302Z,27.30
2018-02-18T17:47:00.598Z,25.23
2018-02-18T17:49:29.931Z,24.87
2018-02-18T17:51:59.993Z,25.05
2018-02-18T17:54:30.087Z,25.98
2018-02-18T17:56:59.419Z,26.23
2018-02-18T17:59:29.513Z,26.58
2018-02-18T18:01:59.266Z,27.10
2018-02-18T18:04:28.558Z,26.52
2018-02-18T18:06:58.009Z,23.80
2018-02-18T18:09:27.290Z,25.65
2018-02-18T18:11:56.629Z,26.67
2018-02-18T18:14:25.956Z,26.80
2018-02-18T18:16:55.363Z,28.30
2018-02-18T18:19:24.708Z,28.77
2018-02-18T18:21:53.994Z,26.70
2018-02-18T18:24:23.308Z,26.95
2018-02-18T18:26:52.626Z,28.65
2018-02-18T18:29:21.936Z,28.25
2018-02-18T18:31:51.271Z,29.08
2018-02-18T18:34:20.575Z,31.40
2018-02-18T18:36:49.876Z,27.87
2018-02-18T18:39:19.205Z,27.02
2018-02-18T18:41:48.503Z,28.58
2018-02-18T18:44:17.803Z,27.75
2018-02-18T18:46:47.918Z,26.23
2018-02-18T18:49:17.200Z,29.87
2018-02-18T18:51:46.518Z,30.30
2018-02-18T18:54:15.797Z,28.85
2018-02-18T18:56:45.110Z,26.80
2018-02-18T18:59:14.512Z,27.20
2018-02-18T19:01:43.825Z,28.02
2018-02-18T19:04:13.109Z,28.12
2018-02-18T19:06:42.411Z,28.87
2018-02-18T19:09:11.746Z,28.83
2018-02-18T19:11:41.141Z,27.37
2018-02-18T19:14:10.794Z,26.85
2018-02-18T19:16:40.117Z,27.90
2018-02-18T19:19:09.416Z,27.40
2018-02-18T19:21:38.706Z,29.35
2018-02-18T19:24:08.791Z,27.40
2018-02-18T19:26:38.102Z,26.55
2018-02-18T19:29:07.398Z,27.65
2018-02-18T19:31:36.787Z,27.35
2018-02-18T19:34:06.111Z,26.30
2018-02-18T19:36:35.400Z,24.40
2018-02-18T19:39:04.717Z,27.92
2018-02-18T19:41:34.051Z,29.02
2018-02-18T19:44:03.372Z,27.58
2018-02-18T19:46:32.692Z,27.48
2018-02-18T19:49:02.003Z,26.75
2018-02-18T19:51:31.338Z,28.17
2018-02-18T19:54:00.649Z,29.42
2018-02-18T19:56:30.000Z,26.90
2018-02-18T19:58:59.316Z,31.20
2018-02-18T20:01:28.894Z,28.60
2018-02-18T20:03:58.224Z,27.45
2018-02-18T20:06:27.566Z,25.98
2018-02-18T20:08:56.889Z,26.45
2018-02-18T20:11:26.193Z,29.50
2018-02-18T20:13:55.517Z,28.58
2018-02-18T20:16:25.409Z,26.48
2018-02-18T20:18:55.523Z,28.83
2018-02-18T20:21:24.841Z,28.62
2018-02-18T20:23:54.127Z,26.77
2018-02-18T20:26:24.236Z,30.27
2018-02-18T20:28:53.558Z,27.92
2018-02-18T20:31:22.856Z,28.25
2018-02-18T20:33:52.163Z,27.40
2018-02-18T20:36:21.467Z,25.67
2018-02-18T20:38:50.782Z,24.17
2018-02-18T20:41:20.087Z,24.08
2018-02-18T20:43:49.373Z,23.02
2018-02-18T20:46:18.671Z,21.77
2018-02-18T20:48:47.961Z,23.20
2018-02-18T20:51:17.311Z,20.23
2018-02-18T20:53:47.379Z,19.65
2018-02-18T20:56:16.699Z,18.12
2018-02-18T20:58:45.997Z,19.98
2018-02-18T21:01:15.321Z,17.83
2018-02-18T21:03:45.377Z,17.60
2018-02-18T21:06:14.689Z,19.58
2018-02-18T21:08:44.050Z,19.70
2018-02-18T21:11:13.496Z,20.30
2018-02-18T21:13:42.858Z,18.52
2018-02-18T21:16:12.186Z,19.33
2018-02-18T21:18:41.484Z,20.02
2018-02-18T21:21:10.824Z,21.33
2018-02-18T21:23:40.127Z,20.37
2018-02-18T21:26:11.109Z,19.77
2018-02-18T21:28:41.217Z,19.27
2018-02-18T21:31:10.539Z,22.65
2018-02-18T21:33:39.851Z,21.40
2018-02-18T21:36:09.642Z,21.10
2018-02-18T21:38:38.935Z,20.40
2018-02-18T21:41:08.219Z,19.12
2018-02-18T21:43:37.563Z,20.77
2018-02-18T21:46:06.877Z,22.10
2018-02-18T21:48:42.288Z,20.80
2018-02-18T21:51:11.582Z,21.45
2018-02-18T21:53:40.885Z,21.95
2018-02-18T21:56:10.177Z,22.10
2018-02-18T21:58:39.479Z,20.73
2018-02-18T22:01:09.541Z,23.45
2018-02-18T22:03:38.859Z,19.15
2018-02-18T22:06:08.175Z,19.60
2018-02-18T22:08:37.472Z,21.23
2018-02-18T22:11:06.785Z,20.60
2018-02-18T22:13:36.871Z,19.70
2018-02-18T22:16:06.266Z,19.70
2018-02-18T22:18:35.576Z,19.42
2018-02-18T22:21:05.640Z,19.35
2018-02-18T22:23:34.945Z,20.12
2018-02-18T22:26:05.024Z,20.00
2018-02-18T22:28:35.244Z,20.62
2018-02-18T22:31:04.585Z,18.80
2018-02-18T22:33:33.856Z,20.33
2018-02-18T22:36:03.214Z,20.02
2018-02-18T22:38:32.514Z,21.98
2018-02-18T22:41:01.799Z,17.90
2018-02-18T22:43:31.109Z,19.70
2018-02-18T22:46:00.739Z,17.52
2018-02-18T22:48:30.050Z,17.67
2018-02-18T22:50:59.349Z,17.98
2018-02-18T22:53:28.738Z,16.35
2018-02-18T22:55:58.020Z,19.12
2018-02-18T22:58:27.328Z,19.37
2018-02-18T23:00:56.634Z,19.42
2018-02-18T23:03:25.943Z,19.90
2018-02-18T23:05:55.243Z,17.65
2018-02-18T23:08:24.537Z,17.08
2018-02-18T23:10:53.834Z,17.10
2018-02-18T23:13:23.960Z,18.00
2018-02-18T23:15:53.250Z,19.62
2018-02-18T23:18:22.553Z,19.25
2018-02-18T23:21:08.489Z,17.70
2018-02-18T23:23:37.810Z,18.20
2018-02-18T23:26:07.867Z,17.40
2018-02-18T23:28:37.174Z,17.20
2018-02-18T23:31:06.475Z,17.83
2018-02-18T23:33:35.788Z,16.95
2018-02-18T23:36:05.851Z,17.70
2018-02-18T23:38:35.152Z,17.95
2018-02-18T23:41:04.472Z,15.52
2018-02-18T23:43:34.190Z,15.90
2018-02-18T23:46:03.504Z,16.80
2018-02-18T23:48:32.808Z,15.68
2018-02-18T23:51:02.106Z,17.80
2018-02-18T23:53:31.422Z,18.40
2018-02-18T23:56:00.721Z,15.80
2018-02-18T23:58:30.013Z,14.45
